• Join FlightAware (Why Join?)
  • Login
  • US Flag 
11:50PM EDT


 

Airport Tracker/Info


-or-


 

Live Flight TrackerFlight Track Log ✈ SKW6195 ✈ 23-Nov-2013 ✈ KDEN - CYVR

Flight Track Log - Related Links

Times and Time Zones

All times are in EST time to prevent confusion due to time zone crossing. See the SKW6195 flight status page for this flight to view local times or setup timezone preferences in your user account.

Time Position Orientation Groundspeed Altitude Reporting Facility
EST Latitude Longitude Course Direction KTS MPH feet Rate Location/Type
01:42PM 39.8833 -104.5667 317° Northwest 172 198 7,700  Level Denver TRACON
01:43PM 39.9000 -104.4833 75° East 245 282 9,100 1,800 Climbing Denver TRACON
01:44PM 40.1726 -105.1337 323° Northwest  Level Estimated
01:44PM 39.9500 -104.4000 52° Northeast 304 350 11,300  Level Denver TRACON
01:45PM 40.2500 -105.2495 330° Northwest  Level Estimated
01:45PM 40.0644 -104.4472 342° North 345 397 13,600  Level Denver Center
01:46PM 40.3273 -105.3656 323° Northwest  Level Estimated
01:46PM 40.1658 -104.5364 326° Northwest 360 414 16,800  Level Denver Center
01:47PM 40.4045 -105.4819 317° Northwest  Level Estimated
01:47PM 40.2447 -104.6050 326° Northwest 345 397 18,600  Level Denver Center
01:48PM 40.3339 -104.6825 326° Northwest 358 412 20,600 1,740 Climbing Denver Center
01:49PM 40.4147 -104.7569 325° Northwest 357 411 22,200 1,440 Climbing Denver Center
01:50PM 40.5114 -104.8403 327° Northwest 383 441 23,600 1,380 Climbing Denver Center
01:51PM 40.5992 -104.9211 325° Northwest 381 438 25,100 1,140 Climbing Denver Center
01:52PM 40.6842 -104.9969 326° Northwest 371 427 26,000 720 Climbing Denver Center
01:53PM 40.7553 -105.0594 326° Northwest 382 440 26,700 1,020 Climbing Denver Center
01:54PM 40.8558 -105.1717 320° Northwest 394 453 28,200 1,260 Climbing Denver Center
01:55PM 40.9411 -105.2658 320° Northwest 402 463 29,400 1,200 Climbing Denver Center
01:57PM 41.0308 -105.3653 320° Northwest 398 458 30,800 1,380 Climbing Denver Center
01:58PM 41.1269 -105.4683 321° Northwest 398 458 32,300 1,200 Climbing Denver Center
01:59PM 41.2125 -105.5489 325° Northwest 396 456 33,300 840 Climbing Denver Center
02:00PM 41.3139 -105.6431 325° Northwest 398 458 34,100 600 Climbing Denver Center
02:01PM 41.3997 -105.7306 323° Northwest 403 464 34,600 480 Climbing Denver Center
02:02PM 41.4861 -105.8214 322° Northwest 409 471 35,200 720 Climbing Denver Center
02:03PM 41.5889 -105.9250 323° Northwest 414 476 36,100 720 Climbing Denver Center
02:04PM 41.6525 -106.0367 307° West 389 448 36,800 720 Climbing Denver Center
02:05PM 41.7067 -106.1506 303° West 382 440 37,600 540 Climbing Denver Center
02:06PM 41.7692 -106.2828 302° West 376 433 38,000 180 Climbing Denver Center
02:07PM 41.8319 -106.4175 302° West 380 437 38,000  Level Denver Center
02:08PM 41.8953 -106.5489 303° West 392 451 38,000  Level Denver Center
02:09PM 41.9517 -106.6703 302° West 399 459 38,000  Level Denver Center
02:10PM 42.0094 -106.7919 303° West 403 464 38,000  Level Denver Center
02:11PM 42.0764 -106.9358 302° West 407 468 38,000  Level Denver Center
02:12PM 42.1311 -107.0589 301° West 405 466 38,000  Level Denver Center
02:13PM 42.1989 -107.2050 302° West 411 473 38,000  Level Denver Center
02:14PM 42.2575 -107.3303 302° West 414 476 38,000  Level Denver Center
02:15PM 42.3256 -107.4803 302° West 418 481 38,000  Level Denver Center
02:16PM 42.3856 -107.6103 302° West 424 488 38,000  Level Denver Center
02:17PM 42.4522 -107.7600 301° West 421 484 38,000  Level Denver Center
02:19PM 42.5408 -107.9575 301° West 427 491 38,000  Level Salt Lake Center
02:20PM 42.6008 -108.0900 302° West 430 495 38,000  Level Salt Lake Center
02:21PM 42.6692 -108.2456 301° West 431 496 38,000  Level Salt Lake Center
02:22PM 42.7300 -108.3808 302° West 438 504 38,000  Level Salt Lake Center
02:23PM 42.7997 -108.5406 301° West 440 506 38,000  Level Salt Lake Center
02:24PM 42.8603 -108.6778 301° West 441 507 38,000  Level Salt Lake Center
02:25PM 42.9308 -108.8375 301° West 442 509 38,000  Level Salt Lake Center
02:26PM 42.9872 -108.9711 300° West 449 517 38,000  Level Salt Lake Center
02:27PM 43.0644 -109.1461 301° West 449 517 38,000  Level Salt Lake Center
02:28PM 43.1281 -109.2947 300° West 451 519 38,000  Level Salt Lake Center
02:29PM 43.1914 -109.4433 300° West 452 520 38,000  Level Salt Lake Center
02:30PM 43.2564 -109.5931 301° West 455 524 38,000  Level Salt Lake Center
02:31PM 43.3194 -109.7433 300° West 455 524 38,000  Level Salt Lake Center
02:32PM 43.3875 -109.9003 301° West 451 519 38,000  Level Salt Lake Center
02:33PM 43.4578 -110.0681 300° West 454 522 38,000  Level Salt Lake Center
02:34PM 43.5178 -110.2094 300° West 455 524 38,000  Level Salt Lake Center
02:35PM 43.5872 -110.3794 299° West 455 524 38,000  Level Salt Lake Center
02:36PM 43.6467 -110.5239 300° West 455 524 38,000  Level Salt Lake Center
02:37PM 43.7086 -110.6686 301° West 460 529 38,000  Level Salt Lake Center
02:38PM 43.7767 -110.8408 299° West 457 526 38,000  Level Salt Lake Center
02:39PM 43.8353 -110.9861 299° West 453 521 38,000  Level Salt Lake Center
02:40PM 43.9039 -111.1550 299° West 451 519 38,000  Level Salt Lake Center
02:41PM 43.9603 -111.2961 299° West 443 510 38,000  Level Salt Lake Center
02:42PM 44.0261 -111.4611 299° West 436 502 38,000  Level Salt Lake Center
02:43PM 44.0828 -111.6017 299° West 435 501 38,000  Level Salt Lake Center
02:44PM 44.1375 -111.7439 298° West 435 501 38,000  Level Salt Lake Center
02:45PM 44.2031 -111.9097 299° West 436 502 38,000  Level Salt Lake Center
02:46PM 44.2586 -112.0514 299° West 434 499 38,000  Level Salt Lake Center
02:47PM 44.3225 -112.2161 299° West 432 497 38,000  Level Salt Lake Center
02:48PM 44.3775 -112.3581 299° West 433 498 38,000  Level Salt Lake Center
02:50PM 44.4306 -112.4992 298° West 430 495 38,000  Level Salt Lake Center
02:51PM 44.4936 -112.6639 298° West 430 495 38,000  Level Salt Lake Center
02:52PM 44.5469 -112.8047 298° West 428 493 38,000  Level Salt Lake Center
02:53PM 44.6106 -112.9714 298° West 432 497 38,000  Level Salt Lake Center
02:54PM 44.6639 -113.1150 298° West 432 497 38,000  Level Salt Lake Center
02:55PM 44.7258 -113.2836 297° West 435 501 38,000  Level Salt Lake Center
02:56PM 44.7808 -113.4272 298° West 436 502 38,000  Level Salt Lake Center
02:57PM 44.8331 -113.5731 297° West 436 502 38,000  Level Salt Lake Center
02:58PM 44.8989 -113.7417 299° West 439 505 38,000  Level Salt Lake Center
02:59PM 44.9519 -113.8878 297° West 438 504 38,000  Level Salt Lake Center
03:00PM 45.0131 -114.0589 297° West 437 503 38,000  Level Salt Lake Center
03:01PM 45.0822 -114.1964 305° West 432 497 38,000  Level Salt Lake Center
03:02PM 45.1528 -114.3317 307° West 429 494 38,000  Level Salt Lake Center
03:03PM 45.2239 -114.4661 307° West 429 494 38,000  Level Salt Lake Center
03:04PM 45.2931 -114.6019 306° West 427 491 38,000  Level Salt Lake Center
03:05PM 45.3617 -114.7342 306° West 420 483 38,000  Level Salt Lake Center
03:06PM 45.4444 -114.8942 306° West 416 479 38,000  Level Seattle Center
03:06PM 45.4444 -114.8942 306° West 420 483 38,000  Level Salt Lake Center
03:07PM 45.5108 -115.0236 306° West 409 471 38,000  Level Seattle Center
03:08PM 45.5769 -115.1542 306° West 407 468 38,000  Level Seattle Center
03:09PM 45.6433 -115.2856 306° West 409 471 38,000  Level Seattle Center
03:10PM 45.7097 -115.4167 306° West 410 472 38,000  Level Seattle Center
03:11PM 45.7744 -115.5458 306° West 408 470 38,000  Level Seattle Center
03:12PM 45.8400 -115.6783 305° West 408 470 38,000  Level Seattle Center
03:13PM 45.9069 -115.8106 306° West 410 472 38,000  Level Seattle Center
03:14PM 45.9731 -115.9450 305° West 411 473 38,000  Level Seattle Center
03:15PM 46.0411 -116.0761 307° West 410 472 38,000  Level Seattle Center
03:16PM 46.1114 -116.2019 309° West 407 468 38,000  Level Seattle Center
03:17PM 46.1825 -116.3292 309° West 408 470 38,000  Level Seattle Center
03:18PM 46.2656 -116.4836 308° West 408 470 38,000  Level Seattle Center
03:19PM 46.3342 -116.6106 308° West 403 464 38,000  Level Seattle Center
03:20PM 46.4036 -116.7403 308° West 406 467 38,000  Level Seattle Center
03:21PM 46.4722 -116.8664 308° West 402 463 38,000  Level Seattle Center
03:22PM 46.5414 -116.9931 308° West 401 461 38,000  Level Seattle Center
03:23PM 46.6094 -117.1217 308° West 402 463 38,000  Level Seattle Center
03:24PM 46.6775 -117.2506 308° West 402 463 38,000  Level Seattle Center
03:25PM 46.7458 -117.3797 308° West 402 463 38,000  Level Seattle Center
03:26PM 46.8142 -117.5106 307° West 404 465 38,000  Level Seattle Center
03:27PM 46.8819 -117.6406 307° West 403 464 38,000  Level Seattle Center
03:28PM 46.9483 -117.7692 307° West 398 458 38,000  Level Seattle Center
03:29PM 47.0156 -117.8986 307° West 397 457 38,000  Level Seattle Center
03:30PM 47.0831 -118.0286 307° West 401 461 38,000  Level Seattle Center
03:31PM 47.1492 -118.1578 307° West 397 457 38,000  Level Seattle Center
03:32PM 47.2292 -118.3142 307° West 399 459 38,000  Level Seattle Center
03:33PM 47.2950 -118.4436 307° West 396 456 38,000  Level Seattle Center
03:34PM 47.3608 -118.5742 307° West 396 456 38,000  Level Seattle Center
03:35PM 47.4267 -118.7042 307° West 397 457 38,000  Level Seattle Center
03:36PM 47.4917 -118.8350 306° West 395 455 38,000  Level Seattle Center
03:37PM 47.5564 -118.9644 307° West 392 451 38,000  Level Seattle Center
03:39PM 47.6200 -119.0942 306° West 391 450 38,000  Level Seattle Center
03:40PM 47.6839 -119.2233 306° West 389 448 38,000  Level Seattle Center
03:41PM 47.7472 -119.3517 306° West 387 445 38,000  Level Seattle Center
03:42PM 47.8111 -119.4819 306° West 389 448 38,000  Level Seattle Center
03:43PM 47.8739 -119.6117 306° West 387 445 38,000  Level Seattle Center
03:44PM 47.9378 -119.7425 306° West 389 448 38,000  Level Seattle Center
03:45PM 48.0003 -119.8722 306° West 387 445 38,000  Level Seattle Center
03:46PM 48.0633 -120.0028 306° West 388 447 38,000  Level Seattle Center
03:47PM 48.1344 -120.1683 303° West 397 457 38,000  Level Seattle Center
03:48PM 48.1636 -120.3286 285° West 403 464 38,000  Level Seattle Center
03:49PM 48.1936 -120.4917 285° West 409 471 38,000  Level Seattle Center
03:50PM 48.2317 -120.6514 290° West 407 468 38,000  Level Seattle Center
03:51PM 48.2761 -120.8089 293° West 410 472 38,000  Level Seattle Center
03:52PM 48.3158 -120.9575 292° West 410 472 38,000 -1,380 Level Seattle Center
03:53PM 48.3561 -121.1161 291° West 408 470 35,300 -3,060 Descending Seattle Center
03:54PM 48.4086 -121.3092 292° West 416 479 31,800 -3,300 Descending Seattle Center
03:55PM 48.4500 -121.4731 291° West 420 483 28,600 -3,180 Descending Seattle Center
03:56PM 48.4936 -121.6403 292° West 429 494 25,400 -3,180 Descending Seattle Center
03:57PM 48.5356 -121.8061 291° West 427 491 22,200 -3,240 Descending Seattle Center
03:58PM 48.5761 -121.9644 291° West 412 474 18,900 -3,060 Descending Seattle Center
03:59PM 48.6144 -122.1167 291° West 397 457 16,000 -3,240 Descending Seattle Center
03:59PM 48.6333 -122.2167 286° West 380 437 14,000 -2,640 Descending Vancouver Center
04:00PM 48.6500 -122.3333 282° West 360 414 12,000 -1,020 Descending Vancouver Center
04:01PM 48.6833 -122.4667 291° West 300 345 12,000 -420 Level Vancouver Center
04:02PM 48.7167 -122.5667 297° West 280 322 11,200 -1,020 Descending Vancouver Center
04:03PM 48.7667 -122.6333 319° Northwest 280 322 10,000 -1,200 Descending Vancouver Center
04:04PM 48.8167 -122.7333 307° West 280 322 8,800 -1,020 Descending Vancouver Center
04:05PM 48.8667 -122.8333 307° West 280 322 8,000 -420 Descending Vancouver Center
04:06PM 48.9167 -122.8833 327° Northwest 270 311 8,000 -600 Level Vancouver Center
04:07PM 48.9833 -122.9167 342° North 270 311 6,800 -1,500 Descending Vancouver Center
04:08PM 49.0667 -122.9000 North 270 311 5,000 -1,740 Descending Vancouver Center
04:09PM 49.1500 -122.9000 360° North 270 311 3,400 -1,320 Descending Vancouver Center
04:10PM 49.1667 -122.9833 287° West 220 253 2,400 -1,080 Descending Vancouver Center
04:11PM 49.1667 -123.0833 270° West 190 219 1,300 -960 Descending Vancouver Center
04:12PM 49.1833 -123.1333 297° West 140 161 500 -840 Descending Vancouver Center